createdAt,value
2018-06-16T00:02:16.768Z,12.03
2018-06-16T00:04:45.308Z,12.07
2018-06-16T00:07:13.889Z,14.23
2018-06-16T00:09:42.416Z,11.73
2018-06-16T00:12:10.988Z,13.20
2018-06-16T00:14:39.510Z,15.97
2018-06-16T00:17:08.089Z,14.03
2018-06-16T00:19:36.612Z,12.57
2018-06-16T00:22:05.180Z,11.25
2018-06-16T00:27:02.737Z,10.13
2018-06-16T00:29:31.265Z,13.40
2018-06-16T00:31:59.813Z,13.17
2018-06-16T00:34:28.341Z,13.17
2018-06-16T00:36:56.890Z,15.27
2018-06-16T00:39:25.428Z,12.13
2018-06-16T00:41:54.207Z,15.47
2018-06-16T00:44:22.735Z,17.03
2018-06-16T00:46:51.289Z,13.33
2018-06-16T00:49:19.844Z,13.27
2018-06-16T00:51:48.371Z,13.90
2018-06-16T00:54:16.936Z,12.67
2018-06-16T00:56:51.903Z,14.10
2018-06-16T00:59:20.457Z,14.33
2018-06-16T01:01:48.999Z,12.23
2018-06-16T01:04:18.450Z,12.88
2018-06-16T01:06:46.959Z,16.90
2018-06-16T01:09:15.500Z,13.23
2018-06-16T01:11:44.020Z,14.43
2018-06-16T01:14:12.560Z,13.87
2018-06-16T01:16:41.073Z,16.73
2018-06-16T01:19:09.608Z,14.28
2018-06-16T01:21:38.113Z,14.80
2018-06-16T01:24:06.669Z,19.00
2018-06-16T01:26:35.190Z,13.30
2018-06-16T01:29:03.805Z,12.53
2018-06-16T01:31:32.350Z,13.45
2018-06-16T01:34:00.921Z,12.17
2018-06-16T01:36:29.490Z,12.27
2018-06-16T01:38:58.047Z,15.50
2018-06-16T01:41:26.609Z,14.15
2018-06-16T01:43:55.160Z,16.20
2018-06-16T01:46:23.704Z,15.87
2018-06-16T01:48:52.272Z,13.17
2018-06-16T01:51:20.789Z,15.03
2018-06-16T01:53:49.345Z,15.57
2018-06-16T01:56:18.873Z,14.75
2018-06-16T01:58:47.438Z,12.77
2018-06-16T02:01:16.000Z,19.20
2018-06-16T02:03:44.553Z,12.90
2018-06-16T02:06:13.108Z,13.70
2018-06-16T02:08:41.661Z,13.57
2018-06-16T02:11:10.216Z,18.03
2018-06-16T02:13:39.037Z,15.90
2018-06-16T02:16:07.548Z,16.90
2018-06-16T02:18:36.105Z,14.67
2018-06-16T02:21:04.629Z,14.33
2018-06-16T02:23:33.225Z,14.60
2018-06-16T02:26:01.763Z,14.18
2018-06-16T02:28:30.289Z,15.77
2018-06-16T02:30:58.862Z,14.40
2018-06-16T02:33:27.388Z,15.20
2018-06-16T02:35:55.936Z,13.13
2018-06-16T02:38:24.477Z,15.83
2018-06-16T02:40:53.032Z,14.93
2018-06-16T02:43:21.556Z,15.73
2018-06-16T02:45:50.118Z,16.60
2018-06-16T02:48:19.233Z,15.78
2018-06-16T02:50:48.069Z,13.77
2018-06-16T02:53:16.589Z,18.13
2018-06-16T02:55:45.416Z,18.63
2018-06-16T02:58:14.141Z,19.10
2018-06-16T03:00:43.032Z,17.40
2018-06-16T03:03:11.579Z,17.23
2018-06-16T03:05:40.166Z,18.50
2018-06-16T03:08:08.732Z,18.00
2018-06-16T03:10:37.281Z,17.00
2018-06-16T03:13:05.803Z,18.85
2018-06-16T03:15:34.370Z,18.95
2018-06-16T03:18:02.885Z,17.03
2018-06-16T03:20:31.445Z,18.17
2018-06-16T03:22:59.988Z,19.20
2018-06-16T03:25:28.549Z,17.10
2018-06-16T03:27:57.074Z,20.13
2018-06-16T03:30:25.662Z,18.20
2018-06-16T03:32:54.192Z,18.80
2018-06-16T03:35:22.748Z,16.53
2018-06-16T03:37:51.277Z,18.23
2018-06-16T03:40:19.924Z,20.43
2018-06-16T03:42:49.332Z,20.53
2018-06-16T03:45:17.892Z,17.03
2018-06-16T03:47:46.424Z,18.53
2018-06-16T03:50:14.992Z,17.07
2018-06-16T03:52:43.693Z,22.43
2018-06-16T03:55:12.253Z,24.82
2018-06-16T03:57:40.779Z,18.63
2018-06-16T04:00:09.412Z,16.97
2018-06-16T04:02:37.967Z,19.93
2018-06-16T04:05:06.596Z,21.07
2018-06-16T04:07:35.129Z,18.73
2018-06-16T04:10:03.719Z,17.53
2018-06-16T04:12:32.250Z,17.53
2018-06-16T04:15:00.841Z,17.32
2018-06-16T04:17:29.405Z,18.37
2018-06-16T04:19:57.924Z,19.53
2018-06-16T04:22:26.480Z,20.77
2018-06-16T04:24:55.042Z,19.92
2018-06-16T04:27:23.613Z,17.20
2018-06-16T04:29:52.164Z,20.53
2018-06-16T04:32:20.712Z,20.00
2018-06-16T04:34:49.582Z,17.63
2018-06-16T04:37:18.184Z,18.60
2018-06-16T04:39:46.724Z,19.53
2018-06-16T04:42:15.289Z,20.57
2018-06-16T04:44:45.410Z,20.67
2018-06-16T04:47:14.206Z,19.33
2018-06-16T04:49:42.768Z,19.77
2018-06-16T04:52:11.328Z,19.20
2018-06-16T04:54:39.856Z,22.30
2018-06-16T04:57:08.417Z,20.80
2018-06-16T04:59:36.940Z,21.50
2018-06-16T05:02:05.537Z,21.27
2018-06-16T05:04:34.073Z,25.35
2018-06-16T05:07:02.633Z,20.23
2018-06-16T05:09:31.160Z,18.07
2018-06-16T05:11:59.733Z,23.63
2018-06-16T05:14:28.260Z,19.63
2018-06-16T05:16:56.819Z,18.30
2018-06-16T05:19:25.374Z,19.60
2018-06-16T05:21:54.163Z,19.15
2018-06-16T05:24:22.717Z,19.73
2018-06-16T05:26:51.272Z,20.90
2018-06-16T05:29:19.825Z,20.70
2018-06-16T05:31:48.420Z,22.60
2018-06-16T05:34:17.889Z,21.33
2018-06-16T05:36:46.468Z,19.43
2018-06-16T05:39:15.001Z,19.43
2018-06-16T05:41:48.870Z,19.73
2018-06-16T05:44:19.732Z,20.00
2018-06-16T05:46:51.818Z,20.10
2018-06-16T05:49:25.706Z,20.10
2018-06-16T05:51:55.936Z,22.93
2018-06-16T05:54:27.721Z,17.52
2018-06-16T05:57:00.297Z,20.83
2018-06-16T05:59:30.891Z,18.47
2018-06-16T06:01:59.952Z,18.13
2018-06-16T06:04:33.617Z,17.57
2018-06-16T06:07:06.064Z,17.80
2018-06-16T06:09:39.433Z,20.37
2018-06-16T06:12:10.007Z,16.57
2018-06-16T06:14:43.906Z,17.40
2018-06-16T06:17:12.904Z,18.63
2018-06-16T06:19:46.698Z,18.03
2018-06-16T06:22:16.320Z,17.97
2018-06-16T06:24:44.942Z,17.40
2018-06-16T06:27:24.309Z,16.93
2018-06-16T06:29:57.741Z,19.93
2018-06-16T06:32:35.631Z,17.75
2018-06-16T06:35:10.053Z,18.03
2018-06-16T06:40:26.396Z,18.17
2018-06-16T06:42:57.125Z,16.57
2018-06-16T06:45:26.286Z,16.93
2018-06-16T06:48:02.850Z,16.53
2018-06-16T06:50:38.375Z,17.10
2018-06-16T06:53:12.451Z,18.83
2018-06-16T06:55:44.301Z,17.10
2018-06-16T06:58:16.321Z,16.73
2018-06-16T07:00:49.876Z,18.43
2018-06-16T07:03:21.809Z,15.10
2018-06-16T07:05:53.601Z,15.73
2018-06-16T07:08:22.605Z,16.30
2018-06-16T07:10:56.260Z,16.27
2018-06-16T07:13:33.569Z,15.07
2018-06-16T07:16:04.230Z,14.43
2018-06-16T07:18:40.018Z,15.07
2018-06-16T07:21:12.061Z,15.33
2018-06-16T07:23:44.597Z,15.43
2018-06-16T07:26:14.102Z,16.33
2018-06-16T07:28:45.536Z,15.13
2018-06-16T07:31:14.545Z,15.10
2018-06-16T07:33:50.832Z,15.83
2018-06-16T07:36:22.712Z,18.80
2018-06-16T07:38:54.014Z,16.73
2018-06-16T07:41:24.760Z,15.43
2018-06-16T07:43:55.541Z,16.03
2018-06-16T07:46:26.146Z,15.50
2018-06-16T07:48:58.868Z,18.00
2018-06-16T07:51:38.192Z,21.60
2018-06-16T07:54:08.792Z,27.37
2018-06-16T07:56:40.821Z,31.60
2018-06-16T07:59:13.812Z,37.00
2018-06-16T08:01:48.144Z,37.58
2018-06-16T08:04:25.325Z,40.47
2018-06-16T08:07:00.692Z,34.77
2018-06-16T08:09:36.593Z,38.93
2018-06-16T08:12:09.413Z,32.13
2018-06-16T08:14:45.212Z,26.83
2018-06-16T08:17:14.443Z,48.03
2018-06-16T08:19:47.693Z,46.10
2018-06-16T08:22:19.051Z,47.33
2018-06-16T08:24:48.248Z,44.73
2018-06-16T08:27:18.718Z,40.13
2018-06-16T08:29:49.719Z,47.47
2018-06-16T08:32:27.739Z,36.93
2018-06-16T08:34:59.507Z,28.63
2018-06-16T08:37:28.064Z,32.23
2018-06-16T08:40:08.998Z,27.33
2018-06-16T08:42:41.783Z,23.13
2018-06-16T08:45:10.587Z,26.00
2018-06-16T08:47:39.765Z,23.30
2018-06-16T08:50:13.858Z,16.47
2018-06-16T08:52:46.418Z,13.62
2018-06-16T08:55:15.882Z,15.97
2018-06-16T08:57:46.213Z,12.43
2018-06-16T09:00:14.892Z,13.87
2018-06-16T09:02:48.708Z,11.37
2018-06-16T09:05:19.736Z,10.97
2018-06-16T09:07:51.948Z,12.17
2018-06-16T09:10:22.447Z,14.23
2018-06-16T09:12:52.073Z,12.17
2018-06-16T09:15:24.756Z,11.00
2018-06-16T09:17:56.794Z,11.33
2018-06-16T09:20:27.018Z,9.33
2018-06-16T09:22:55.685Z,12.63
2018-06-16T09:25:30.667Z,9.53
2018-06-16T09:27:59.807Z,13.30
2018-06-16T09:30:29.368Z,9.88
2018-06-16T09:33:05.138Z,9.63
2018-06-16T09:35:36.716Z,10.60
2018-06-16T09:38:08.616Z,13.10
2018-06-16T09:40:40.981Z,9.30
2018-06-16T09:43:09.580Z,10.13
2018-06-16T09:45:38.537Z,7.67
2018-06-16T09:48:07.126Z,7.83
2018-06-16T09:50:39.651Z,7.20
2018-06-16T09:53:11.778Z,8.13
2018-06-16T09:55:43.338Z,8.50
2018-06-16T09:58:13.931Z,7.43
2018-06-16T10:00:46.988Z,7.87
2018-06-16T10:03:19.289Z,7.13
2018-06-16T10:05:53.827Z,6.63
2018-06-16T10:08:22.476Z,6.27
2018-06-16T10:10:51.005Z,6.50
2018-06-16T10:13:24.640Z,8.93
2018-06-16T10:15:54.430Z,7.50
2018-06-16T10:18:24.495Z,6.60
2018-06-16T10:21:00.631Z,3.80
2018-06-16T10:23:34.147Z,3.47
2018-06-16T10:26:07.253Z,3.70
2018-06-16T10:28:39.025Z,4.22
2018-06-16T10:31:09.032Z,3.80
2018-06-16T10:33:38.928Z,5.53
2018-06-16T10:36:08.392Z,3.85
2018-06-16T10:38:37.493Z,4.07
2018-06-16T10:41:06.240Z,3.37
2018-06-16T10:43:34.810Z,3.03
2018-06-16T10:46:03.694Z,4.13
2018-06-16T10:48:32.217Z,4.60
2018-06-16T10:51:00.843Z,5.35
2018-06-16T10:53:29.405Z,6.10
2018-06-16T10:55:57.964Z,5.70
2018-06-16T10:58:26.462Z,5.67
2018-06-16T11:00:55.405Z,5.33
2018-06-16T11:03:24.658Z,6.53
2018-06-16T11:05:54.244Z,5.10
2018-06-16T11:08:24.416Z,5.27
2018-06-16T11:10:54.108Z,5.73
2018-06-16T11:13:23.904Z,5.57
2018-06-16T11:15:53.752Z,5.63
2018-06-16T11:18:24.136Z,6.10
2018-06-16T11:20:54.022Z,5.47
2018-06-16T11:23:23.990Z,5.53
2018-06-16T11:25:53.631Z,8.90
2018-06-16T11:28:22.300Z,5.20
2018-06-16T11:30:53.239Z,5.20
2018-06-16T11:33:23.389Z,5.57
2018-06-16T11:35:53.511Z,4.80
2018-06-16T11:38:23.610Z,5.73
2018-06-16T11:40:55.038Z,4.93
2018-06-16T11:43:23.649Z,5.10
2018-06-16T11:45:53.760Z,3.60
2018-06-16T11:48:27.352Z,3.50
2018-06-16T11:50:56.255Z,3.47
2018-06-16T11:53:27.556Z,3.77
2018-06-16T11:55:56.072Z,3.33
2018-06-16T11:58:24.617Z,3.77
2018-06-16T12:00:53.168Z,3.17
2018-06-16T12:03:21.985Z,3.35
2018-06-16T12:05:52.115Z,3.00
2018-06-16T12:08:20.777Z,3.40
2018-06-16T12:10:49.569Z,3.40
2018-06-16T12:13:18.149Z,3.47
2018-06-16T12:15:46.685Z,3.07
2018-06-16T12:18:15.261Z,3.30
2018-06-16T12:20:45.477Z,3.03
2018-06-16T12:23:14.076Z,2.43
2018-06-16T12:25:42.602Z,2.97
2018-06-16T12:28:11.192Z,3.20
2018-06-16T12:30:39.725Z,2.67
2018-06-16T12:33:12.988Z,2.73
2018-06-16T12:35:41.517Z,2.80
2018-06-16T12:38:10.076Z,2.50
2018-06-16T12:40:38.637Z,2.50
2018-06-16T12:43:14.042Z,2.57
2018-06-16T12:45:43.092Z,2.67
2018-06-16T12:48:17.485Z,3.57
2018-06-16T12:50:46.013Z,3.03
2018-06-16T12:53:14.628Z,2.53
2018-06-16T12:55:43.517Z,2.70
2018-06-16T12:58:12.068Z,2.60
2018-06-16T13:00:40.661Z,2.50
2018-06-16T13:03:09.196Z,2.50
2018-06-16T13:05:37.704Z,2.35
2018-06-16T13:08:06.429Z,2.67
2018-06-16T13:10:35.698Z,2.83
2018-06-16T13:13:05.676Z,2.67
2018-06-16T13:15:34.717Z,2.70
2018-06-16T13:18:04.953Z,2.50
2018-06-16T13:20:34.569Z,2.97
2018-06-16T13:23:04.537Z,2.60
2018-06-16T13:25:34.432Z,2.47
2018-06-16T13:28:04.281Z,2.43
2018-06-16T13:30:34.147Z,2.85
2018-06-16T13:33:09.081Z,2.23
2018-06-16T13:35:39.187Z,2.80
2018-06-16T13:38:09.863Z,2.40
2018-06-16T13:40:39.860Z,3.90
2018-06-16T13:43:10.219Z,3.37
2018-06-16T13:45:40.024Z,2.22
2018-06-16T13:48:10.286Z,2.80
2018-06-16T13:50:40.262Z,2.40
2018-06-16T13:53:10.237Z,2.53
2018-06-16T13:55:40.297Z,2.40
2018-06-16T13:58:13.472Z,2.10
2018-06-16T14:00:42.396Z,2.40
2018-06-16T14:03:17.484Z,2.40
2018-06-16T14:05:48.705Z,1.83
2018-06-16T14:08:22.859Z,1.90
2018-06-16T14:10:56.461Z,1.93
2018-06-16T14:13:29.834Z,2.15
2018-06-16T14:15:59.015Z,2.10
2018-06-16T14:18:29.372Z,2.67
2018-06-16T14:20:59.867Z,2.57
2018-06-16T14:23:28.964Z,2.47
2018-06-16T14:26:00.714Z,2.43
2018-06-16T14:28:34.989Z,3.23
2018-06-16T14:31:06.191Z,2.80
2018-06-16T14:33:39.949Z,1.70
2018-06-16T14:36:10.165Z,1.60
2018-06-16T14:38:41.033Z,1.50
2018-06-16T14:41:10.518Z,2.15
2018-06-16T14:43:39.910Z,1.90
2018-06-16T14:46:09.005Z,1.47
2018-06-16T14:48:42.529Z,1.80
2018-06-16T14:51:12.787Z,1.67
2018-06-16T14:53:44.934Z,2.17
2018-06-16T14:56:16.209Z,2.53
2018-06-16T14:58:48.632Z,6.60
2018-06-16T15:01:23.096Z,2.63
2018-06-16T15:03:58.057Z,2.17
2018-06-16T15:06:28.580Z,2.73
2018-06-16T15:08:57.512Z,1.80
2018-06-16T15:11:30.159Z,2.60
2018-06-16T15:14:03.181Z,2.27
2018-06-16T15:16:33.850Z,2.00
2018-06-16T15:19:06.410Z,2.20
2018-06-16T15:21:37.581Z,1.52
2018-06-16T15:24:08.723Z,1.90
2018-06-16T15:26:44.720Z,2.57
2018-06-16T15:29:14.090Z,2.10
2018-06-16T15:31:50.753Z,2.10
2018-06-16T15:34:23.211Z,1.50
2018-06-16T15:36:54.904Z,1.87
2018-06-16T15:39:30.427Z,2.00
2018-06-16T15:42:01.970Z,1.90
2018-06-16T15:44:33.852Z,2.50
2018-06-16T15:47:04.188Z,2.27
2018-06-16T15:49:33.180Z,2.52
2018-06-16T15:52:02.194Z,2.08
2018-06-16T15:54:36.412Z,2.50
2018-06-16T15:57:07.476Z,2.70
2018-06-16T15:59:38.767Z,1.90
2018-06-16T16:02:10.544Z,1.70
2018-06-16T16:04:41.837Z,2.35
2018-06-16T16:07:12.922Z,2.15
2018-06-16T16:09:45.675Z,2.33
2018-06-16T16:12:17.756Z,2.10
2018-06-16T16:14:46.404Z,2.80
2018-06-16T16:17:15.065Z,2.73
2018-06-16T16:19:43.649Z,2.15
2018-06-16T16:22:12.232Z,2.08
2018-06-16T16:24:47.424Z,2.53
2018-06-16T16:27:20.876Z,3.83
2018-06-16T16:29:53.422Z,2.90
2018-06-16T16:32:26.145Z,2.23
2018-06-16T16:34:54.700Z,2.20
2018-06-16T16:37:28.161Z,2.90
2018-06-16T16:40:01.195Z,2.53
2018-06-16T16:42:31.250Z,4.57
2018-06-16T16:45:03.841Z,5.33
2018-06-16T16:47:33.110Z,3.45
2018-06-16T16:50:07.461Z,3.93
2018-06-16T16:52:38.845Z,4.50
2018-06-16T16:55:10.151Z,4.03
2018-06-16T16:57:40.224Z,8.03
2018-06-16T17:00:09.037Z,3.43
2018-06-16T17:02:42.276Z,7.53
2018-06-16T17:05:21.515Z,3.33
2018-06-16T17:07:51.334Z,3.27
2018-06-16T17:10:19.930Z,3.77
2018-06-16T17:12:59.965Z,5.20
2018-06-16T17:15:32.775Z,3.67
2018-06-16T17:18:04.800Z,6.13
2018-06-16T17:20:35.046Z,4.40
2018-06-16T17:23:03.622Z,3.77
2018-06-16T17:25:36.900Z,3.90
2018-06-16T17:28:11.891Z,4.30
2018-06-16T17:30:49.238Z,3.70
2018-06-16T17:33:23.051Z,4.90
2018-06-16T17:35:51.834Z,3.60
2018-06-16T17:38:20.375Z,3.00
2018-06-16T17:40:54.234Z,3.90
2018-06-16T17:43:27.191Z,4.00
2018-06-16T17:45:59.272Z,3.40
2018-06-16T17:48:32.880Z,3.73
2018-06-16T17:51:02.810Z,4.65
2018-06-16T17:53:36.331Z,5.13
2018-06-16T17:56:11.986Z,3.60
2018-06-16T17:58:46.824Z,14.73
2018-06-16T18:01:23.190Z,5.43
2018-06-16T18:03:51.885Z,275.37
2018-06-16T18:06:21.203Z,285.30
2018-06-16T18:08:51.934Z,1843.00
2018-06-16T18:11:22.915Z,567.27
2018-06-16T18:13:52.854Z,1328.50
2018-06-16T18:16:21.407Z,1999.90
2018-06-16T18:18:50.009Z,471.07
2018-06-16T18:21:18.565Z,1999.90
2018-06-16T18:23:47.159Z,1973.47
2018-06-16T18:26:15.890Z,1144.33
2018-06-16T18:28:44.672Z,322.87
2018-06-16T18:31:13.264Z,1999.90
2018-06-16T18:33:41.820Z,1999.90
2018-06-16T18:36:10.441Z,299.43
2018-06-16T18:38:38.977Z,1352.07
2018-06-16T18:41:07.544Z,252.65
2018-06-16T18:43:36.339Z,12.90
2018-06-16T18:46:05.395Z,93.67
2018-06-16T18:48:33.928Z,78.00
2018-06-16T18:51:02.750Z,2.47
2018-06-16T18:53:31.292Z,2.97
2018-06-16T18:55:59.841Z,2.90
2018-06-16T18:58:28.357Z,3.40
2018-06-16T19:00:56.933Z,4.00
2018-06-16T19:03:26.826Z,3.97
2018-06-16T19:05:55.674Z,2.97
2018-06-16T19:08:24.260Z,4.67
2018-06-16T19:10:52.796Z,4.03
2018-06-16T19:13:21.333Z,3.80
2018-06-16T19:15:49.912Z,3.10
2018-06-16T19:18:36.730Z,4.23
2018-06-16T19:21:05.521Z,3.30
2018-06-16T19:23:34.032Z,4.83
2018-06-16T19:26:02.909Z,3.15
2018-06-16T19:28:32.252Z,7.10
2018-06-16T19:31:00.776Z,3.10
2018-06-16T19:33:29.285Z,4.57
2018-06-16T19:35:57.847Z,3.43
2018-06-16T19:38:29.530Z,3.77
2018-06-16T19:40:58.224Z,3.10
2018-06-16T19:43:26.730Z,5.20
2018-06-16T19:45:58.153Z,4.37
2018-06-16T19:48:26.737Z,3.40
2018-06-16T19:50:55.706Z,4.20
2018-06-16T19:53:24.249Z,3.67
2018-06-16T19:55:54.069Z,3.97
2018-06-16T19:58:22.621Z,6.45
2018-06-16T20:00:51.169Z,4.97
2018-06-16T20:03:19.832Z,5.50
2018-06-16T20:05:48.381Z,3.00
2018-06-16T20:08:16.944Z,3.70
2018-06-16T20:10:45.497Z,8.77
2018-06-16T20:13:17.937Z,3.43
2018-06-16T20:15:46.597Z,4.83
2018-06-16T20:18:15.279Z,5.73
2018-06-16T20:20:43.820Z,3.50
2018-06-16T20:23:12.380Z,3.13
2018-06-16T20:25:40.955Z,5.30
2018-06-16T20:28:09.497Z,4.93
2018-06-16T20:30:38.076Z,5.85
2018-06-16T20:33:06.625Z,4.90
2018-06-16T20:35:39.685Z,3.60
2018-06-16T20:38:08.245Z,2.80
2018-06-16T20:40:40.372Z,3.67
2018-06-16T20:43:09.049Z,6.70
2018-06-16T20:45:37.648Z,4.77
2018-06-16T20:48:06.228Z,4.40
2018-06-16T20:50:34.797Z,3.83
2018-06-16T20:53:03.384Z,3.77
2018-06-16T20:55:31.969Z,7.60
2018-06-16T20:58:00.505Z,4.97
2018-06-16T21:00:29.113Z,4.40
2018-06-16T21:02:57.621Z,4.67
2018-06-16T21:05:27.461Z,6.40
2018-06-16T21:07:57.696Z,5.50
2018-06-16T21:10:27.086Z,3.47
2018-06-16T21:12:55.597Z,5.53
2018-06-16T21:15:24.136Z,7.13
2018-06-16T21:17:52.900Z,6.03
2018-06-16T21:20:21.531Z,3.67
2018-06-16T21:22:50.043Z,7.97
2018-06-16T21:25:19.860Z,8.73
2018-06-16T21:27:48.629Z,10.33
2018-06-16T21:30:17.518Z,7.03
2018-06-16T21:32:46.074Z,5.50
2018-06-16T21:35:14.704Z,4.12
2018-06-16T21:37:43.256Z,6.70
2018-06-16T21:40:11.780Z,6.97
2018-06-16T21:42:40.372Z,5.53
2018-06-16T21:45:09.173Z,6.17
2018-06-16T21:47:37.675Z,3.53
2018-06-16T21:50:11.913Z,4.40
2018-06-16T21:52:40.447Z,5.17
2018-06-16T21:55:15.419Z,4.35
2018-06-16T21:57:46.899Z,5.27
2018-06-16T22:00:22.051Z,7.60
2018-06-16T22:02:50.725Z,5.00
2018-06-16T22:05:22.843Z,6.70
2018-06-16T22:07:59.137Z,4.40
2018-06-16T22:10:29.320Z,5.53
2018-06-16T22:12:57.962Z,5.57
2018-06-16T22:15:27.877Z,4.05
2018-06-16T22:17:59.161Z,3.85
2018-06-16T22:20:28.453Z,7.07
2018-06-16T22:22:57.349Z,6.30
2018-06-16T22:25:25.969Z,3.40
2018-06-16T22:27:59.634Z,3.20
2018-06-16T22:30:30.748Z,5.58
2018-06-16T22:33:01.782Z,5.72
2018-06-16T22:35:32.685Z,4.20
2018-06-16T22:38:03.272Z,4.22
2018-06-16T22:40:34.259Z,5.17
2018-06-16T22:43:05.085Z,4.07
2018-06-16T22:45:33.786Z,4.00
2018-06-16T22:48:04.735Z,3.40
2018-06-16T22:50:33.445Z,3.57
2018-06-16T22:53:05.722Z,4.80
2018-06-16T22:55:35.336Z,5.83
2018-06-16T22:58:05.610Z,5.27
2018-06-16T23:00:38.624Z,5.30
2018-06-16T23:03:08.029Z,3.40
2018-06-16T23:05:38.034Z,5.28
2018-06-16T23:08:11.004Z,5.00
2018-06-16T23:10:41.082Z,3.30
2018-06-16T23:13:12.662Z,4.07
2018-06-16T23:15:42.583Z,5.10
2018-06-16T23:18:11.857Z,4.33
2018-06-16T23:20:40.599Z,3.67
2018-06-16T23:23:14.796Z,9.98
2018-06-16T23:25:43.464Z,3.97
2018-06-16T23:28:12.010Z,5.90
2018-06-16T23:30:40.540Z,4.13
2018-06-16T23:33:09.125Z,5.93
2018-06-16T23:35:37.629Z,4.33
2018-06-16T23:38:06.205Z,10.10
2018-06-16T23:40:34.756Z,5.23
2018-06-16T23:43:03.360Z,4.67
2018-06-16T23:45:31.885Z,5.65
2018-06-16T23:48:00.453Z,4.27
2018-06-16T23:50:29.945Z,4.12
2018-06-16T23:52:58.489Z,4.27
2018-06-16T23:55:26.989Z,5.93
2018-06-16T23:57:55.629Z,5.80
